2022年5月28日 3:00 上午2022年5月28日 3:00 下午有效
时间
星期六
3:00 上午
星期六
4:00 上午
星期六
5:00 上午
星期六
6:00 上午
星期六
7:00 上午
星期六
8:00 上午
>40%
星期六
9:00 上午
>40%
星期六
10:00 上午
>40%
星期六
11:00 上午
>40%
星期六
12:00 下午
>40%
星期六
1:00 下午
>40%
星期六
2:00 下午
>40%
代码
VFR
VFR
VFR
VFR
VFR
VFR
VFR
VFR
VFR
VFR
VFR
VFR
天气
碎云
碎云
碎云
碎云
碎云
碎云
碎云
碎云
碎云
碎云
碎云
碎云
能见度
6¼ mi+
6¼ mi+
6¼ mi+
6¼ mi+
6¼ mi+
6¼ mi+
6¼ mi+
6¼ mi+
6¼ mi+
6¼ mi+
6¼ mi+
6¼ mi+
天花板
4.000 ft
4.000 ft
4.000 ft
4.000 ft
4.000 ft
4.000 ft
4.000 ft
4.000 ft
4.000 ft
4.000 ft
4.000 ft
4.000 ft
250°
250°
250°
250°
250°
250°
250°
250°
250°
250°
340°
340°
340°
340°
340°
340°
340°
340°
340°
340°
340°
340°
340°
340°
速度
5 kt
5 kt
5 kt
5 kt
5 kt
10 kt
10 kt
10 kt
10 kt
10 kt
10 kt
10 kt
阵风
20 kt
20 kt
20 kt
20 kt
20 kt
20 kt
20 kt
温度/星期日
5:28 上午

原版的

TAF EHVK 280014Z 2801/2813 25005KT 9999 BKN040
TEMPO 2806/2813 34010G20KT

TAF Vlieland Heliport

Vlieland Heliport是Vlieland,荷兰中的直升机场。 视场标高为37 ft。

这份报告是针对2022年5月28日 2:14 上午, 当地时间在Volkel Air Base进行的。 从2022年5月28日 3:00 上午到2022年5月28日 3:00 下午, 当地时间有效.

预报

  • 从星期六 3:00 上午到3:00 下午

    • 风: 风来自250°方向,速度为5 kt。
    • 能见度: 6¼ mi 或者更多
    • 乌云: 碎云在4.000 ft的高度.

  • 暂时在星期六 8:00 上午和3:00 下午之间

    • 风: 风来自340°方向,速度为10 kt。 预计20 kt阵风。

白天

今天,太阳从5:22 上午升起,在9:51 下午降落。 这适用于Vlieland Heliport,世界夏令时可能有所不同。 当地时间与世界标准时间之间的时差为+2 小时。 夏令时目前正在进行中。

下载我们的应用程序

在您的手机和平板电脑上轻松访问所有航空天气。
有许多网站上没有的功能,如离线支持和个人机场列表。

Studio Eveline

Benalmádena
España

我们和第三方通过cookies跟踪您在我们网站上的上网行为。如果您继续,我们认为您同意我们的cookie政策。 了解更多